Time;durP1;ratioP1;P1;durP2;ratioP2;P2;SDS_P1;SDS_P2;PMS_P1;PMS_P2;Temp;Humidity;BMP_temperature;BMP_pressure;BME280_temperature;BME280_humidity;BME280_pressure;Samples;Min_cycle;Max_cycle;Signal;HPM_P1;HPM_P2
2021/08/28 00:00:00;;;;;;;4.93;2.97;;;;;;;;;;5013846;28;20029;-66
2021/08/28 00:02:25;;;;;;;4.30;3.00;;;;;;;;;;5004916;28;20028;-71
2021/08/28 00:04:52;;;;;;;4.28;2.58;;;;;;;;;;5013528;28;20030;-66
2021/08/28 00:07:18;;;;;;;6.57;2.63;;;;;;;;;;5013276;28;20086;-68
2021/08/28 00:09:43;;;;;;;5.63;3.00;;;;;;;;;;5013649;28;20494;-68
2021/08/28 00:12:09;;;;;;;5.57;2.88;;;;;;;;;;5013064;28;20101;-67
2021/08/28 00:14:34;;;;;;;6.03;2.90;;;;;;;;;;5013552;28;20026;-68
2021/08/28 00:17:00;;;;;;;4.38;2.53;;;;;;;;;;5013717;28;20033;-68
2021/08/28 00:19:26;;;;;;;3.92;2.63;;;;;;;;;;5013380;28;20428;-67
2021/08/28 00:21:57;;;;;;;4.35;2.58;;;;;;;;;;5013113;28;20057;-68
2021/08/28 00:24:23;;;;;;;3.72;2.70;;;;;;;;;;5013140;28;20466;-66
2021/08/28 00:26:49;;;;;;;4.32;2.67;;;;;;;;;;5013606;28;20036;-67
2021/08/28 00:29:14;;;;;;;5.03;3.03;;;;;;;;;;5013443;28;20474;-67
2021/08/28 00:31:40;;;;;;;5.28;3.38;;;;;;;;;;5007234;28;20140;-68
2021/08/28 00:34:06;;;;;;;5.82;3.08;;;;;;;;;;5013483;28;20049;-69
2021/08/28 00:36:33;;;;;;;7.40;3.30;;;;;;;;;;5005185;28;20071;-66
2021/08/28 00:38:59;;;;;;;4.60;2.95;;;;;;;;;;5012908;28;20030;-65
2021/08/28 00:41:24;;;;;;;4.25;2.72;;;;;;;;;;5012677;28;20038;-66
2021/08/28 00:43:50;;;;;;;4.20;2.70;;;;;;;;;;5013073;28;20041;-65
2021/08/28 00:46:16;;;;;;;4.78;2.67;;;;;;;;;;5012242;28;20030;-69
2021/08/28 00:48:42;;;;;;;4.88;3.13;;;;;;;;;;5006847;28;20021;-66
2021/08/28 00:51:11;;;;;;;4.30;3.10;;;;;;;;;;5005701;28;20115;-65
2021/08/28 00:53:36;;;;;;;4.65;2.58;;;;;;;;;;5012226;28;20048;-66
2021/08/28 00:56:02;;;;;;;4.50;2.60;;;;;;;;;;5011439;28;20105;-66
2021/08/28 00:58:28;;;;;;;6.15;3.40;;;;;;;;;;5011710;28;20040;-66
2021/08/28 01:00:58;;;;;;;4.72;2.92;;;;;;;;;;5012119;28;20033;-65
2021/08/28 01:03:26;;;;;;;5.10;3.38;;;;;;;;;;5011493;28;20033;-66
2021/08/28 01:06:13;;;;;;;5.75;3.30;;;;;;;;;;5011750;28;20088;-66
2021/08/28 01:08:47;;;;;;;7.10;4.38;;;;;;;;;;5011570;28;20049;-66
2021/08/28 01:11:18;;;;;;;;;;;;;;;;;;5013290;28;20026;-66
2021/08/28 01:13:56;;;;;;;10.13;5.32;;;;;;;;;;5014037;28;19999;-65
2021/08/28 01:16:22;;;;;;;8.35;5.50;;;;;;;;;;5031645;28;20082;-65
2021/08/28 01:18:52;;;;;;;13.15;6.35;;;;;;;;;;5031508;28;20033;-66
2021/08/28 01:21:27;;;;;;;8.80;6.13;;;;;;;;;;5015168;28;20493;-66
2021/08/28 01:23:56;;;;;;;12.32;6.47;;;;;;;;;;5011252;28;20296;-65
2021/08/28 01:26:23;;;;;;;11.38;6.45;;;;;;;;;;5010752;28;20029;-65
2021/08/28 01:29:17;;;;;;;8.98;6.18;;;;;;;;;;5011252;28;20033;-66
2021/08/28 01:31:45;;;;;;;10.93;6.30;;;;;;;;;;5008622;28;20069;-66
2021/08/28 01:34:12;;;;;;;11.13;6.22;;;;;;;;;;5011290;28;20101;-66
2021/08/28 01:36:38;;;;;;;11.57;6.60;;;;;;;;;;5010893;28;20026;-65
2021/08/28 01:39:04;;;;;;;12.63;7.05;;;;;;;;;;5011997;28;20121;-66
2021/08/28 01:41:30;;;;;;;9.38;6.32;;;;;;;;;;5010992;28;20030;-66
2021/08/28 01:43:57;;;;;;;11.80;6.93;;;;;;;;;;5011379;28;20036;-65
2021/08/28 01:46:24;;;;;;;13.02;6.35;;;;;;;;;;5010147;28;20029;-67
2021/08/28 01:48:49;;;;;;;9.05;7.10;;;;;;;;;;5011570;28;20363;-66
2021/08/28 01:51:16;;;;;;;11.05;5.50;;;;;;;;;;5011075;28;20022;-67
2021/08/28 01:53:42;;;;;;;12.73;7.28;;;;;;;;;;5011211;28;20026;-66
2021/08/28 01:56:10;;;;;;;10.75;7.20;;;;;;;;;;5011117;28;20405;-66
2021/08/28 01:58:36;;;;;;;9.05;6.50;;;;;;;;;;5011188;28;20026;-66
2021/08/28 02:01:02;;;;;;;10.77;6.85;;;;;;;;;;5010945;28;20071;-66
2021/08/28 02:03:27;;;;;;;11.05;6.50;;;;;;;;;;5010816;28;20497;-66
2021/08/28 02:06:01;;;;;;;10.85;7.38;;;;;;;;;;5011005;28;20018;-66
2021/08/28 02:08:45;;;;;;;11.20;7.32;;;;;;;;;;4993153;28;20049;-67
2021/08/28 02:11:21;;;;;;;10.15;7.28;;;;;;;;;;5010320;28;20033;-67
2021/08/28 02:13:56;;;;;;;12.75;7.72;;;;;;;;;;5011030;28;20022;-67
2021/08/28 02:16:23;;;;;;;11.73;7.20;;;;;;;;;;5010545;28;20137;-67
2021/08/28 02:18:59;;;;;;;12.45;7.47;;;;;;;;;;5011047;28;20418;-66
2021/08/28 02:21:28;;;;;;;12.55;7.38;;;;;;;;;;5010904;28;20478;-67
2021/08/28 02:24:03;;;;;;;9.77;6.85;;;;;;;;;;5010987;28;20030;-66
2021/08/28 02:26:38;;;;;;;11.90;6.78;;;;;;;;;;5010750;28;20095;-67
2021/08/28 02:29:13;;;;;;;10.55;7.07;;;;;;;;;;5010991;28;20030;-66
2021/08/28 02:31:44;;;;;;;11.88;7.03;;;;;;;;;;5006637;28;20026;-67
2021/08/28 02:34:12;;;;;;;12.30;7.03;;;;;;;;;;5010805;28;20018;-66
2021/08/28 02:36:41;;;;;;;11.60;7.03;;;;;;;;;;5010905;28;20037;-66
2021/08/28 02:39:08;;;;;;;11.95;7.40;;;;;;;;;;5012996;28;20030;-67
2021/08/28 02:41:34;;;;;;;12.75;7.18;;;;;;;;;;5014510;28;20112;-67
2021/08/28 02:44:01;;;;;;;10.48;7.30;;;;;;;;;;5014545;28;20078;-67
2021/08/28 02:46:27;;;;;;;12.65;6.78;;;;;;;;;;5014274;28;20050;-68
2021/08/28 02:48:55;;;;;;;13.65;7.53;;;;;;;;;;5014300;28;20030;-67
2021/08/28 02:51:22;;;;;;;11.05;6.85;;;;;;;;;;5014319;28;20032;-68
2021/08/28 02:53:48;;;;;;;11.60;7.15;;;;;;;;;;5014012;28;20136;-66
2021/08/28 02:56:19;;;;;;;11.45;7.40;;;;;;;;;;5014124;28;20026;-67
2021/08/28 02:58:46;;;;;;;10.82;6.72;;;;;;;;;;5014049;28;20029;-68
2021/08/28 03:01:12;;;;;;;10.27;6.78;;;;;;;;;;5014049;28;20088;-66
2021/08/28 03:03:40;;;;;;;10.77;6.97;;;;;;;;;;5008061;28;20054;-67
2021/08/28 03:06:06;;;;;;;10.70;6.22;;;;;;;;;;4994657;28;20134;-67
2021/08/28 03:08:33;;;;;;;9.88;6.07;;;;;;;;;;4994378;28;20061;-67
2021/08/28 03:11:00;;;;;;;12.05;7.13;;;;;;;;;;5010502;28;20437;-67
2021/08/28 03:13:26;;;;;;;8.93;6.40;;;;;;;;;;5014122;28;20076;-67
2021/08/28 03:15:52;;;;;;;11.82;7.32;;;;;;;;;;5014034;28;20034;-67
2021/08/28 03:18:23;;;;;;;11.45;6.47;;;;;;;;;;5013503;28;20044;-66
2021/08/28 03:20:52;;;;;;;9.68;6.50;;;;;;;;;;5006347;28;20034;-66
2021/08/28 03:23:21;;;;;;;9.60;5.60;;;;;;;;;;5013566;28;20034;-67
2021/08/28 03:25:48;;;;;;;10.18;5.90;;;;;;;;;;5013822;28;20067;-66
2021/08/28 03:28:16;;;;;;;9.40;5.75;;;;;;;;;;5013098;28;20030;-67
2021/08/28 03:30:45;;;;;;;8.35;5.07;;;;;;;;;;5013818;28;20021;-66
2021/08/28 03:33:16;;;;;;;10.88;5.85;;;;;;;;;;5013609;28;20026;-66
2021/08/28 03:35:44;;;;;;;8.32;4.85;;;;;;;;;;5013357;28;20037;-67
2021/08/28 03:38:10;;;;;;;7.70;4.80;;;;;;;;;;5013144;28;20037;-67
2021/08/28 03:40:37;;;;;;;8.80;5.22;;;;;;;;;;5013393;28;20034;-67
2021/08/28 03:43:02;;;;;;;10.15;4.82;;;;;;;;;;5013653;28;20022;-67
2021/08/28 03:45:29;;;;;;;8.98;5.40;;;;;;;;;;5013163;28;20032;-66
2021/08/28 03:47:56;;;;;;;9.00;4.82;;;;;;;;;;5012622;28;20061;-67
2021/08/28 03:50:21;;;;;;;8.18;4.90;;;;;;;;;;5012583;28;20501;-67
2021/08/28 03:52:47;;;;;;;7.65;5.30;;;;;;;;;;5013275;28;20017;-67
2021/08/28 03:55:12;;;;;;;7.10;4.72;;;;;;;;;;5012924;28;20041;-66
2021/08/28 03:57:38;;;;;;;8.60;5.28;;;;;;;;;;5012947;28;20033;-67
2021/08/28 04:00:05;;;;;;;7.35;4.97;;;;;;;;;;5013142;28;20470;-66
2021/08/28 04:02:30;;;;;;;10.85;5.25;;;;;;;;;;5012685;28;20406;-66
2021/08/28 04:04:56;;;;;;;9.45;5.28;;;;;;;;;;5013159;28;20048;-67
2021/08/28 04:07:22;;;;;;;10.70;6.20;;;;;;;;;;5012789;28;20057;-66
2021/08/28 04:09:47;;;;;;;9.13;5.75;;;;;;;;;;5012768;28;20026;-66
2021/08/28 04:12:13;;;;;;;9.10;5.90;;;;;;;;;;5013049;28;20021;-66
2021/08/28 04:14:38;;;;;;;8.60;5.90;;;;;;;;;;5012762;28;20030;-67
2021/08/28 04:17:04;;;;;;;9.13;6.88;;;;;;;;;;5012645;28;20026;-67
2021/08/28 04:19:30;;;;;;;11.02;6.78;;;;;;;;;;5012734;28;20025;-67
2021/08/28 04:21:55;;;;;;;11.35;6.93;;;;;;;;;;5012822;28;20036;-67
2021/08/28 04:24:21;;;;;;;9.82;7.05;;;;;;;;;;5012537;28;20099;-67
2021/08/28 04:26:46;;;;;;;12.18;6.78;;;;;;;;;;5012260;28;20442;-67
2021/08/28 04:29:12;;;;;;;15.15;7.85;;;;;;;;;;5012589;28;20113;-67
2021/08/28 04:31:37;;;;;;;9.82;6.57;;;;;;;;;;5012609;28;20386;-67
2021/08/28 04:34:03;;;;;;;10.93;6.45;;;;;;;;;;5012510;28;20513;-67
2021/08/28 04:36:28;;;;;;;14.52;7.10;;;;;;;;;;5012450;28;20434;-67
2021/08/28 04:38:54;;;;;;;10.55;6.47;;;;;;;;;;5012345;28;20065;-66
2021/08/28 04:41:19;;;;;;;9.57;6.65;;;;;;;;;;5012401;28;20020;-66
2021/08/28 04:43:45;;;;;;;12.55;7.32;;;;;;;;;;5010817;28;20022;-67
2021/08/28 04:46:10;;;;;;;10.20;7.32;;;;;;;;;;5011974;28;20071;-67
2021/08/28 04:48:36;;;;;;;12.18;7.25;;;;;;;;;;5012201;28;20018;-67
2021/08/28 04:51:02;;;;;;;11.40;7.07;;;;;;;;;;5012374;28;20024;-67
2021/08/28 04:53:27;;;;;;;10.40;6.85;;;;;;;;;;5012173;28;20465;-67
2021/08/28 04:55:53;;;;;;;13.93;7.15;;;;;;;;;;5012047;28;20076;-67
2021/08/28 04:58:18;;;;;;;9.93;6.95;;;;;;;;;;5012119;28;20446;-67
2021/08/28 05:00:44;;;;;;;10.85;7.40;;;;;;;;;;5012266;28;20057;-67
2021/08/28 05:03:09;;;;;;;10.57;6.43;;;;;;;;;;5011471;28;20113;-67
2021/08/28 05:05:35;;;;;;;8.77;6.50;;;;;;;;;;5011928;28;20429;-67
2021/08/28 05:08:01;;;;;;;9.55;6.20;;;;;;;;;;5011731;28;20038;-66
2021/08/28 05:10:27;;;;;;;9.30;6.13;;;;;;;;;;5011713;28;20036;-67
2021/08/28 05:12:52;;;;;;;9.13;5.90;;;;;;;;;;5010765;28;20018;-67
2021/08/28 05:15:18;;;;;;;10.40;6.22;;;;;;;;;;5012006;28;20474;-67
2021/08/28 05:17:43;;;;;;;9.63;6.25;;;;;;;;;;5011474;28;20038;-66
2021/08/28 05:20:09;;;;;;;10.88;6.97;;;;;;;;;;5011966;28;20033;-66
2021/08/28 05:22:35;;;;;;;12.13;7.30;;;;;;;;;;5011381;28;20088;-67
2021/08/28 05:25:01;;;;;;;8.20;5.65;;;;;;;;;;5011766;28;20473;-67
2021/08/28 05:27:26;;;;;;;8.70;6.32;;;;;;;;;;5011705;28;20494;-67
2021/08/28 05:29:52;;;;;;;7.70;5.32;;;;;;;;;;5011529;28;20057;-66
2021/08/28 05:32:17;;;;;;;9.20;5.90;;;;;;;;;;5011849;28;20057;-67
2021/08/28 05:34:43;;;;;;;8.65;6.13;;;;;;;;;;5011520;28;20022;-67
2021/08/28 05:37:09;;;;;;;8.77;6.07;;;;;;;;;;5011680;28;20036;-66
2021/08/28 05:39:34;;;;;;;7.75;4.90;;;;;;;;;;5011508;28;20105;-67
2021/08/28 05:42:00;;;;;;;6.65;4.93;;;;;;;;;;5011561;28;20022;-67
2021/08/28 05:44:25;;;;;;;7.28;4.65;;;;;;;;;;5011009;28;20136;-67
2021/08/28 05:46:51;;;;;;;6.63;4.40;;;;;;;;;;5011494;28;20054;-67
2021/08/28 05:49:17;;;;;;;5.65;4.10;;;;;;;;;;5011488;28;20064;-67
2021/08/28 05:51:43;;;;;;;5.93;3.85;;;;;;;;;;5011284;28;20061;-67
2021/08/28 05:54:08;;;;;;;7.18;4.72;;;;;;;;;;5011394;28;20117;-66
2021/08/28 05:56:33;;;;;;;5.03;3.47;;;;;;;;;;5011151;28;20538;-67
2021/08/28 05:58:59;;;;;;;5.32;3.90;;;;;;;;;;5011427;28;20034;-66
2021/08/28 06:01:24;;;;;;;4.90;3.58;;;;;;;;;;5010850;28;20045;-68
2021/08/28 06:03:50;;;;;;;5.60;3.63;;;;;;;;;;5011144;28;20427;-67
2021/08/28 06:06:15;;;;;;;5.22;3.58;;;;;;;;;;4993779;28;20026;-67
2021/08/28 06:08:41;;;;;;;5.72;3.90;;;;;;;;;;5010773;28;20416;-67
2021/08/28 06:11:06;;;;;;;5.60;3.78;;;;;;;;;;5011330;28;20025;-67
2021/08/28 06:13:32;;;;;;;5.97;3.13;;;;;;;;;;5012385;28;20390;-67
2021/08/28 06:15:57;;;;;;;5.07;3.55;;;;;;;;;;5015301;28;20025;-67
2021/08/28 06:18:23;;;;;;;4.43;3.28;;;;;;;;;;5015140;28;20485;-66
2021/08/28 06:20:48;;;;;;;4.47;2.95;;;;;;;;;;5015023;28;20378;-67
2021/08/28 06:23:14;;;;;;;4.25;2.85;;;;;;;;;;5014820;28;20057;-67
2021/08/28 06:25:39;;;;;;;4.18;2.78;;;;;;;;;;5015057;28;20022;-67
2021/08/28 06:28:05;;;;;;;3.70;2.50;;;;;;;;;;5015094;28;20520;-66
2021/08/28 06:30:30;;;;;;;2.95;2.20;;;;;;;;;;5014666;28;20033;-67
2021/08/28 06:32:56;;;;;;;4.72;2.40;;;;;;;;;;5014406;28;20026;-67
2021/08/28 06:35:21;;;;;;;3.65;2.45;;;;;;;;;;5014725;28;20402;-67
2021/08/28 06:37:47;;;;;;;3.50;2.20;;;;;;;;;;4995126;28;20382;-67
2021/08/28 06:40:12;;;;;;;4.10;2.47;;;;;;;;;;4995283;28;20461;-68
2021/08/28 06:42:38;;;;;;;3.42;2.63;;;;;;;;;;5006082;28;20029;-67
2021/08/28 06:45:05;;;;;;;3.47;2.55;;;;;;;;;;5014748;28;20025;-67
2021/08/28 06:47:30;;;;;;;4.15;2.38;;;;;;;;;;5014338;28;20026;-67
2021/08/28 06:49:56;;;;;;;4.00;2.30;;;;;;;;;;5014918;28;20077;-67
2021/08/28 06:52:21;;;;;;;4.72;3.08;;;;;;;;;;5014701;28;20061;-67
2021/08/28 06:54:47;;;;;;;2.95;2.22;;;;;;;;;;5014189;28;20053;-68
2021/08/28 06:57:12;;;;;;;4.13;2.50;;;;;;;;;;5014402;28;20033;-66
2021/08/28 06:59:38;;;;;;;3.97;2.10;;;;;;;;;;5014361;28;20385;-67
2021/08/28 07:02:03;;;;;;;3.72;2.35;;;;;;;;;;5014417;28;20490;-67
2021/08/28 07:04:29;;;;;;;3.35;2.30;;;;;;;;;;5014110;28;20026;-67
2021/08/28 07:06:54;;;;;;;3.72;2.30;;;;;;;;;;5014207;28;20026;-66
2021/08/28 07:09:20;;;;;;;4.65;2.40;;;;;;;;;;5014676;28;20417;-67
2021/08/28 07:11:45;;;;;;;3.30;2.40;;;;;;;;;;5013779;28;20112;-67
2021/08/28 07:14:11;;;;;;;5.43;2.38;;;;;;;;;;5014126;28;20048;-68
2021/08/28 07:16:36;;;;;;;3.28;2.13;;;;;;;;;;5014027;28;20080;-67
2021/08/28 07:19:02;;;;;;;3.42;2.10;;;;;;;;;;5013898;28;20018;-67
2021/08/28 07:21:27;;;;;;;4.82;2.25;;;;;;;;;;5013753;28;20032;-67
2021/08/28 07:23:53;;;;;;;3.45;2.10;;;;;;;;;;5013933;28;20474;-67
2021/08/28 07:26:18;;;;;;;4.68;2.17;;;;;;;;;;5013000;28;20026;-68
2021/08/28 07:28:45;;;;;;;3.20;2.00;;;;;;;;;;5013865;28;20032;-67
2021/08/28 07:31:10;;;;;;;2.78;1.80;;;;;;;;;;5013908;28;20113;-66
2021/08/28 07:33:36;;;;;;;2.40;1.70;;;;;;;;;;5013576;28;20314;-67
2021/08/28 07:36:03;;;;;;;2.38;1.60;;;;;;;;;;5013600;28;20076;-67
2021/08/28 07:38:28;;;;;;;2.60;1.67;;;;;;;;;;5013586;28;20060;-68
2021/08/28 07:40:54;;;;;;;1.88;1.25;;;;;;;;;;5013528;28;20486;-68
2021/08/28 07:43:20;;;;;;;2.55;1.30;;;;;;;;;;5013256;28;20033;-67
2021/08/28 07:45:45;;;;;;;2.28;1.33;;;;;;;;;;5013476;28;20466;-67
2021/08/28 07:48:11;;;;;;;2.00;1.15;;;;;;;;;;5013556;28;20022;-67
2021/08/28 07:50:36;;;;;;;1.70;1.27;;;;;;;;;;5013036;28;20036;-66
2021/08/28 07:53:02;;;;;;;2.30;1.17;;;;;;;;;;5013455;28;20103;-65
2021/08/28 07:55:28;;;;;;;1.77;1.10;;;;;;;;;;5013376;28;20497;-67
2021/08/28 07:57:54;;;;;;;2.20;1.30;;;;;;;;;;5013454;28;20061;-66
2021/08/28 08:00:19;;;;;;;2.30;1.58;;;;;;;;;;5013381;28;20026;-67
2021/08/28 08:02:45;;;;;;;2.55;1.60;;;;;;;;;;5013094;28;20028;-66
2021/08/28 08:05:11;;;;;;;3.70;1.90;;;;;;;;;;5013428;28;20029;-66
2021/08/28 08:07:36;;;;;;;3.35;1.70;;;;;;;;;;5013096;28;20169;-66
2021/08/28 08:10:03;;;;;;;2.15;1.60;;;;;;;;;;5013305;28;20060;-66
2021/08/28 08:12:29;;;;;;;4.22;1.85;;;;;;;;;;5012805;28;20034;-66
2021/08/28 08:14:54;;;;;;;3.00;2.20;;;;;;;;;;5012999;28;20030;-66
2021/08/28 08:17:20;;;;;;;3.22;1.95;;;;;;;;;;5013015;28;20029;-66
2021/08/28 08:19:45;;;;;;;3.00;2.10;;;;;;;;;;5012746;28;20375;-65
2021/08/28 08:22:11;;;;;;;4.40;2.35;;;;;;;;;;5012575;28;20026;-66
2021/08/28 08:24:36;;;;;;;3.28;2.30;;;;;;;;;;5012798;28;20470;-67
2021/08/28 08:27:02;;;;;;;3.13;2.25;;;;;;;;;;5012892;28;20025;-66
2021/08/28 08:29:28;;;;;;;4.32;2.42;;;;;;;;;;5012876;28;20029;-66
2021/08/28 08:31:54;;;;;;;4.05;2.40;;;;;;;;;;5012650;28;20029;-66
2021/08/28 08:34:23;;;;;;;3.95;2.70;;;;;;;;;;5012527;28;20061;-67
2021/08/28 08:36:49;;;;;;;4.50;2.60;;;;;;;;;;5012032;28;20037;-65
2021/08/28 08:39:15;;;;;;;4.55;2.58;;;;;;;;;;5012614;28;20021;-66
2021/08/28 08:41:44;;;;;;;5.13;2.38;;;;;;;;;;5012168;28;20029;-66
2021/08/28 08:44:10;;;;;;;4.22;2.42;;;;;;;;;;5012404;28;20084;-66
2021/08/28 08:46:37;;;;;;;3.70;2.85;;;;;;;;;;5012211;28;20053;-65
2021/08/28 08:49:04;;;;;;;4.00;2.60;;;;;;;;;;5012000;28;20117;-65
2021/08/28 08:51:30;;;;;;;3.58;2.75;;;;;;;;;;4994656;28;20068;-67
2021/08/28 08:53:56;;;;;;;3.58;2.58;;;;;;;;;;5012375;28;20084;-66
2021/08/28 08:56:23;;;;;;;4.47;2.58;;;;;;;;;;5012276;28;20026;-67
2021/08/28 08:58:50;;;;;;;3.50;2.25;;;;;;;;;;5012268;28;20478;-66
2021/08/28 09:01:15;;;;;;;3.58;2.58;;;;;;;;;;5011977;28;20022;-67
2021/08/28 09:03:41;;;;;;;3.95;2.17;;;;;;;;;;5009737;28;20036;-67
2021/08/28 09:06:06;;;;;;;3.28;2.00;;;;;;;;;;5012151;28;20113;-67
2021/08/28 09:08:32;;;;;;;4.55;2.78;;;;;;;;;;5011643;28;20044;-66
2021/08/28 09:10:57;;;;;;;3.50;2.15;;;;;;;;;;5012123;28;20249;-66
2021/08/28 09:13:24;;;;;;;3.92;2.55;;;;;;;;;;5012410;28;20335;-66
2021/08/28 09:15:57;;;;;;;3.85;2.55;;;;;;;;;;5011690;28;20076;-66
2021/08/28 09:18:23;;;;;;;3.72;2.25;;;;;;;;;;4993891;28;20030;-67
2021/08/28 09:20:49;;;;;;;3.60;2.30;;;;;;;;;;5011865;28;20460;-67
2021/08/28 09:23:18;;;;;;;5.25;2.30;;;;;;;;;;5011962;28;20071;-67
2021/08/28 09:25:48;;;;;;;4.00;2.40;;;;;;;;;;4994107;28;20030;-69
2021/08/28 09:28:15;;;;;;;3.78;2.25;;;;;;;;;;5012454;28;20022;-68
2021/08/28 09:30:43;;;;;;;3.75;2.20;;;;;;;;;;5011828;28;20068;-66
2021/08/28 09:33:11;;;;;;;4.20;2.20;;;;;;;;;;5011669;28;20369;-68
2021/08/28 09:35:42;;;;;;;4.05;2.10;;;;;;;;;;5011222;28;20497;-68
2021/08/28 09:38:11;;;;;;;4.50;2.30;;;;;;;;;;5011900;28;20033;-69
2021/08/28 09:40:42;;;;;;;5.78;3.00;;;;;;;;;;5012321;28;20060;-69
2021/08/28 09:43:19;;;;;;;3.50;2.70;;;;;;;;;;5012585;28;20080;-68
2021/08/28 09:45:46;;;;;;;5.05;3.53;;;;;;;;;;5009610;28;20109;-68
2021/08/28 09:48:14;;;;;;;5.03;3.65;;;;;;;;;;5011750;28;20044;-68
2021/08/28 09:50:42;;;;;;;6.03;3.90;;;;;;;;;;5011469;28;20385;-68
2021/08/28 09:53:18;;;;;;;5.60;4.15;;;;;;;;;;5011269;28;20076;-69
2021/08/28 09:55:44;;;;;;;7.65;4.28;;;;;;;;;;5011684;28;20040;-69
2021/08/28 09:58:11;;;;;;;6.55;5.10;;;;;;;;;;5012154;28;20105;-69
2021/08/28 10:00:45;;;;;;;6.75;4.75;;;;;;;;;;5010568;28;20026;-69
2021/08/28 10:03:11;;;;;;;6.78;5.53;;;;;;;;;;5011721;28;20038;-68
2021/08/28 10:05:39;;;;;;;7.97;5.32;;;;;;;;;;5011804;28;20029;-66
2021/08/28 10:08:07;;;;;;;10.10;7.03;;;;;;;;;;5027077;28;20088;-66
2021/08/28 10:10:35;;;;;;;8.60;5.55;;;;;;;;;;5024771;28;20045;-67
2021/08/28 10:13:03;;;;;;;7.53;5.90;;;;;;;;;;5009906;28;20030;-67
2021/08/28 10:15:30;;;;;;;7.68;5.78;;;;;;;;;;5013885;28;20420;-67
2021/08/28 10:17:58;;;;;;;7.65;6.00;;;;;;;;;;5011774;28;20022;-66
2021/08/28 10:20:26;;;;;;;8.15;6.47;;;;;;;;;;5014486;28;20490;-66
2021/08/28 10:22:54;;;;;;;8.40;6.70;;;;;;;;;;5010404;28;20037;-65
2021/08/28 10:25:22;;;;;;;9.80;7.05;;;;;;;;;;5010795;28;20117;-65
2021/08/28 10:27:49;;;;;;;11.23;7.20;;;;;;;;;;5010655;28;20025;-66
2021/08/28 10:30:17;;;;;;;12.57;8.77;;;;;;;;;;5003890;28;21603;-67
2021/08/28 10:32:44;;;;;;;11.95;8.80;;;;;;;;;;5010817;28;20518;-67
2021/08/28 10:35:10;;;;;;;14.10;9.07;;;;;;;;;;5006540;28;20065;-66
2021/08/28 10:37:35;;;;;;;13.85;9.48;;;;;;;;;;4996979;28;20028;-66
2021/08/28 10:40:05;;;;;;;14.93;9.55;;;;;;;;;;5011381;28;20538;-67
2021/08/28 10:42:33;;;;;;;15.63;9.25;;;;;;;;;;5011344;28;20029;-67
2021/08/28 10:45:00;;;;;;;14.93;10.32;;;;;;;;;;5010189;28;20026;-68
2021/08/28 10:47:33;;;;;;;13.05;9.25;;;;;;;;;;5010547;28;20026;-67
2021/08/28 10:50:06;;;;;;;12.88;9.90;;;;;;;;;;5010659;28;20034;-67
2021/08/28 10:52:35;;;;;;;13.97;9.73;;;;;;;;;;5010735;28;20030;-67
2021/08/28 10:55:06;;;;;;;13.75;9.32;;;;;;;;;;5010447;28;20092;-67
2021/08/28 10:57:31;;;;;;;17.05;10.48;;;;;;;;;;5010692;28;20076;-67
2021/08/28 11:00:01;;;;;;;13.48;9.23;;;;;;;;;;5011043;28;20026;-68
2021/08/28 11:02:52;;;;;;;13.20;9.65;;;;;;;;;;5014413;28;20080;-66
2021/08/28 11:05:23;;;;;;;13.13;9.30;;;;;;;;;;5014280;28;20100;-66
2021/08/28 11:07:49;;;;;;;14.75;9.70;;;;;;;;;;4996058;28;20085;-67
2021/08/28 11:10:17;;;;;;;12.65;9.63;;;;;;;;;;5014461;28;20057;-66
2021/08/28 11:12:42;;;;;;;14.10;9.88;;;;;;;;;;5013826;28;20038;-67
2021/08/28 11:15:35;;;;;;;19.27;10.13;;;;;;;;;;5014080;28;20052;-67
2021/08/28 11:18:02;;;;;;;16.23;10.05;;;;;;;;;;5013786;28;20497;-66
2021/08/28 11:20:34;;;;;;;13.52;9.02;;;;;;;;;;5013987;28;20429;-67
2021/08/28 11:23:02;;;;;;;13.52;9.70;;;;;;;;;;5013682;28;20026;-66
2021/08/28 11:25:30;;;;;;;15.27;10.27;;;;;;;;;;5013828;28;20029;-66
2021/08/28 11:27:57;;;;;;;13.32;10.35;;;;;;;;;;5013531;28;20414;-65
2021/08/28 11:30:45;;;;;;;14.63;10.88;;;;;;;;;;5014035;28;20113;-66
2021/08/28 11:33:25;;;;;;;13.95;9.95;;;;;;;;;;5003906;28;20045;-67
2021/08/28 11:35:58;;;;;;;14.07;10.57;;;;;;;;;;5013449;28;20030;-65
2021/08/28 11:38:38;;;;;;;15.82;11.05;;;;;;;;;;4996002;28;20025;-67
2021/08/28 11:41:12;;;;;;;13.23;10.70;;;;;;;;;;5013227;28;20033;-67
2021/08/28 11:43:41;;;;;;;;;;;;;;;;;;5013910;28;20068;-67
2021/08/28 11:46:15;;;;;;;10.40;8.73;;;;;;;;;;5013519;28;19909;-66
2021/08/28 11:48:43;;;;;;;12.70;9.88;;;;;;;;;;5013210;28;20046;-67
2021/08/28 11:51:12;;;;;;;12.32;9.70;;;;;;;;;;5013393;28;20029;-67
2021/08/28 11:53:38;;;;;;;12.88;9.68;;;;;;;;;;5013287;28;20461;-66
2021/08/28 11:56:15;;;;;;;11.27;9.77;;;;;;;;;;5012970;28;20045;-67
2021/08/28 11:58:52;;;;;;;12.80;9.80;;;;;;;;;;4995395;28;20026;-67
2021/08/28 12:01:39;;;;;;;15.18;9.75;;;;;;;;;;5013158;28;20109;-66
2021/08/28 12:04:06;;;;;;;15.10;10.82;;;;;;;;;;5012786;28;20084;-66
2021/08/28 12:06:34;;;;;;;14.98;11.23;;;;;;;;;;5013085;28;20080;-66
2021/08/28 12:09:00;;;;;;;16.20;10.95;;;;;;;;;;5012882;28;20053;-67
2021/08/28 12:11:27;;;;;;;17.65;11.88;;;;;;;;;;5012626;28;20386;-66
2021/08/28 12:14:00;;;;;;;15.45;11.88;;;;;;;;;;5012627;28;20021;-65
2021/08/28 12:16:29;;;;;;;15.32;10.32;;;;;;;;;;4995252;28;20516;-66
2021/08/28 12:19:06;;;;;;;15.30;11.90;;;;;;;;;;5012738;28;20389;-67
2021/08/28 12:21:35;;;;;;;16.83;12.63;;;;;;;;;;5012780;28;20029;-67
2021/08/28 12:24:23;;;;;;;18.52;12.25;;;;;;;;;;5012758;28;20030;-68
2021/08/28 12:26:54;;;;;;;16.40;11.88;;;;;;;;;;5012273;28;20042;-67
2021/08/28 12:29:24;;;;;;;14.68;12.13;;;;;;;;;;5012795;28;20029;-68
2021/08/28 12:31:59;;;;;;;18.30;11.85;;;;;;;;;;5009843;28;20030;-68
2021/08/28 12:34:30;;;;;;;16.80;12.90;;;;;;;;;;4995387;28;20105;-67
2021/08/28 12:36:57;;;;;;;18.15;13.15;;;;;;;;;;5011831;28;20022;-69
2021/08/28 12:39:23;;;;;;;17.50;12.73;;;;;;;;;;5003860;28;20045;-66
2021/08/28 12:41:49;;;;;;;16.30;12.98;;;;;;;;;;5005651;28;20104;-67
2021/08/28 12:44:16;;;;;;;19.02;12.98;;;;;;;;;;5013309;28;20057;-65
2021/08/28 12:46:46;;;;;;;17.75;11.93;;;;;;;;;;5013383;28;20026;-66
2021/08/28 12:49:20;;;;;;;14.25;11.63;;;;;;;;;;5013159;28;20029;-66
2021/08/28 12:51:52;;;;;;;17.92;11.95;;;;;;;;;;5012743;28;20028;-66
2021/08/28 12:54:25;;;;;;;13.50;10.50;;;;;;;;;;5011200;28;20026;-66
2021/08/28 12:57:00;;;;;;;12.48;9.95;;;;;;;;;;4994719;28;20057;-66
2021/08/28 12:59:26;;;;;;;10.70;8.82;;;;;;;;;;5012958;28;20022;-67
2021/08/28 13:01:54;;;;;;;15.30;10.23;;;;;;;;;;5011001;28;20040;-66
2021/08/28 13:04:27;;;;;;;16.30;11.20;;;;;;;;;;5011667;28;20029;-67
2021/08/28 13:07:09;;;;;;;16.55;12.40;;;;;;;;;;5011133;28;20041;-67
2021/08/28 13:09:45;;;;;;;19.25;13.93;;;;;;;;;;5011098;28;20034;-66
2021/08/28 13:12:10;;;;;;;21.48;14.10;;;;;;;;;;5010675;28;20034;-66
2021/08/28 13:15:09;;;;;;;21.55;15.55;;;;;;;;;;5012798;28;20021;-66
2021/08/28 13:17:38;;;;;;;23.75;15.43;;;;;;;;;;4969600;28;20041;-65
2021/08/28 13:20:10;;;;;;;23.45;15.98;;;;;;;;;;5011349;28;20037;-67
2021/08/28 13:22:39;;;;;;;29.23;17.30;;;;;;;;;;5009627;28;20084;-68
2021/08/28 13:25:08;;;;;;;26.10;16.65;;;;;;;;;;5009956;28;20622;-67
2021/08/28 13:27:42;;;;;;;27.52;17.48;;;;;;;;;;5010874;28;20478;-67
2021/08/28 13:30:20;;;;;;;23.38;15.88;;;;;;;;;;4993094;28;20034;-66
2021/08/28 13:33:04;;;;;;;26.80;15.70;;;;;;;;;;4997059;28;20110;-67
2021/08/28 13:35:33;;;;;;;27.80;16.08;;;;;;;;;;5007978;28;20220;-67
2021/08/28 13:38:03;;;;;;;28.60;18.23;;;;;;;;;;5009855;28;20089;-66
2021/08/28 13:40:30;;;;;;;24.40;16.02;;;;;;;;;;4994385;28;20137;-68
2021/08/28 13:42:55;;;;;;;31.67;17.63;;;;;;;;;;5010653;28;20504;-67
2021/08/28 13:45:21;;;;;;;27.40;17.90;;;;;;;;;;5011074;28;20038;-66
2021/08/28 13:47:47;;;;;;;24.90;17.08;;;;;;;;;;5010768;28;20049;-67
2021/08/28 13:50:13;;;;;;;28.10;17.65;;;;;;;;;;5010559;28;20104;-67
2021/08/28 13:52:39;;;;;;;22.65;15.75;;;;;;;;;;5011018;28;20141;-67
2021/08/28 13:55:06;;;;;;;24.98;16.50;;;;;;;;;;5010531;28;20025;-67
2021/08/28 13:57:32;;;;;;;27.50;17.65;;;;;;;;;;5012000;28;20506;-67
2021/08/28 13:59:58;;;;;;;26.70;17.67;;;;;;;;;;5011526;28;20061;-67
2021/08/28 14:02:23;;;;;;;27.63;17.02;;;;;;;;;;5010699;28;20387;-68
2021/08/28 14:04:49;;;;;;;27.92;17.58;;;;;;;;;;5011780;28;20033;-67
2021/08/28 14:07:15;;;;;;;26.08;17.00;;;;;;;;;;5011469;28;20026;-67
2021/08/28 14:09:40;;;;;;;24.08;16.15;;;;;;;;;;5011609;28;20108;-67
2021/08/28 14:12:06;;;;;;;26.45;16.70;;;;;;;;;;5011520;28;20462;-67
2021/08/28 14:14:31;;;;;;;25.15;15.85;;;;;;;;;;5011755;28;20018;-67
2021/08/28 14:16:57;;;;;;;26.10;16.20;;;;;;;;;;5011855;28;20549;-67
2021/08/28 14:19:22;;;;;;;21.20;15.65;;;;;;;;;;5024029;28;20048;-68
2021/08/28 14:21:48;;;;;;;18.83;13.63;;;;;;;;;;5031891;28;20052;-67
2021/08/28 14:24:14;;;;;;;21.83;14.73;;;;;;;;;;5025340;28;20083;-67
2021/08/28 14:26:39;;;;;;;19.67;12.80;;;;;;;;;;5011767;28;20033;-66
2021/08/28 14:29:05;;;;;;;22.48;14.63;;;;;;;;;;5004588;28;20037;-66
2021/08/28 14:31:30;;;;;;;24.92;16.05;;;;;;;;;;5011825;28;20057;-67
2021/08/28 14:33:58;;;;;;;25.02;15.48;;;;;;;;;;5012050;28;20048;-68
2021/08/28 14:36:24;;;;;;;24.10;14.60;;;;;;;;;;5014730;28;20109;-67
2021/08/28 14:38:50;;;;;;;22.17;14.95;;;;;;;;;;5014690;28;20543;-67